Time;durP1;ratioP1;P1;durP2;ratioP2;P2;SDS_P1;SDS_P2;PMS_P1;PMS_P2;Temp;Humidity;BMP_temperature;BMP_pressure;BME280_temperature;BME280_humidity;BME280_pressure;Samples;Min_cycle;Max_cycle;Signal;HPM_P1;HPM_P2
2023/01/28 00:01:33;;;;;;;8.27;5.13;;;0.40;1.00;;;;;;10481545;28;20203;-79
2023/01/28 00:06:54;;;;;;;9.87;5.43;;;0.40;99.90;;;;;;10479889;28;20210;-81
2023/01/28 00:12:15;;;;;;;10.53;5.40;;;0.40;1.00;;;;;;10480065;28;20445;-81
2023/01/28 00:17:36;;;;;;;9.33;5.20;;;0.50;1.00;;;;;;10479634;28;20245;-79
2023/01/28 00:22:58;;;;;;;7.30;4.93;;;0.40;1.00;;;;;;10463390;28;20250;-80
2023/01/28 00:28:20;;;;;;;7.63;4.67;;;0.40;99.90;;;;;;10475605;28;20219;-80
2023/01/28 00:33:42;;;;;;;11.83;5.53;;;0.40;1.00;;;;;;10440262;28;20202;-81
2023/01/28 00:39:05;;;;;;;8.60;5.10;;;0.40;99.90;;;;;;10478860;28;20198;-82
2023/01/28 00:44:26;;;;;;;9.27;5.27;;;0.40;1.00;;;;;;10477226;28;20435;-79
2023/01/28 00:49:47;;;;;;;9.10;4.43;;;0.30;99.90;;;;;;10492439;28;20421;-79
2023/01/28 00:55:08;;;;;;;10.93;5.23;;;0.40;1.00;;;;;;10478459;28;20394;-80
2023/01/28 01:00:29;;;;;;;8.33;4.67;;;0.30;1.00;;;;;;10489345;28;20264;-80
2023/01/28 01:05:51;;;;;;;6.87;4.57;;;0.20;99.90;;;;;;10478048;28;20586;-79
2023/01/28 01:11:12;;;;;;;8.23;4.23;;;0.20;1.00;;;;;;10477724;28;20195;-79
2023/01/28 01:16:35;;;;;;;6.10;3.77;;;0.30;99.90;;;;;;10458860;28;20198;-79
2023/01/28 01:21:56;;;;;;;8.27;4.57;;;0.20;1.00;;;;;;10474477;28;20574;-78
2023/01/28 01:27:17;;;;;;;8.83;4.53;;;0.20;99.90;;;;;;10450636;28;20196;-78
2023/01/28 01:32:38;;;;;;;8.70;4.10;;;0.20;1.00;;;;;;10453186;28;20203;-78
2023/01/28 01:38:00;;;;;;;8.07;4.90;;;0.10;1.00;;;;;;10475182;28;20192;-79
2023/01/28 01:43:21;;;;;;;9.37;4.60;;;0.10;1.00;;;;;;10476281;28;20363;-79
2023/01/28 01:48:42;;;;;;;7.30;3.77;;;0.10;1.00;;;;;;10477143;28;20194;-79
2023/01/28 01:54:04;;;;;;;7.87;3.77;;;0.10;99.90;;;;;;10491178;28;20191;-79
2023/01/28 01:59:30;;;;;;;9.30;5.27;;;0.10;1.00;;;;;;10461593;28;20238;-80
2023/01/28 02:04:51;;;;;;;7.53;4.03;;;0.10;87.20;;;;;;10476546;28;20234;-77
2023/01/28 02:10:13;;;;;;;7.33;3.77;;;0.10;99.90;;;;;;10476939;28;20234;-80
2023/01/28 02:15:35;;;;;;;5.57;3.67;;;0.10;1.00;;;;;;10484792;28;20225;-78
2023/01/28 02:21:17;;;;;;;10.03;5.43;;;0.30;99.90;;;;;;10490632;28;20202;-79
2023/01/28 02:26:50;;;;;;;9.87;4.40;;;0.30;1.00;;;;;;10442718;28;20191;-80
2023/01/28 02:32:41;;;;;;;7.00;4.57;;;0.20;42.00;;;;;;10442268;28;20194;-80
2023/01/28 02:38:14;;;;;;;7.23;4.00;;;0.20;1.00;;;;;;10481060;28;20275;-79
2023/01/28 02:43:39;;;;;;;7.67;4.33;;;0.20;99.90;;;;;;10455246;28;20230;-78
2023/01/28 02:49:01;;;;;;;9.27;4.67;;;0.30;1.00;;;;;;10480804;28;20249;-78
2023/01/28 02:54:30;;;;;;;8.80;4.40;;;0.20;1.00;;;;;;10482991;28;20267;-78
2023/01/28 02:59:58;;;;;;;8.50;4.77;;;0.20;99.90;;;;;;10468441;28;20435;-80
2023/01/28 03:05:28;;;;;;;9.70;5.13;;;0.30;99.90;;;;;;10481485;28;20462;-80
2023/01/28 03:39:29;;;;;;;8.03;5.40;;;0.30;99.90;;;;;;10478008;28;20198;-80
2023/01/28 03:44:53;;;;;;;7.97;5.10;;;0.20;1.00;;;;;;10480889;28;20226;-80
2023/01/28 03:50:15;;;;;;;12.37;5.87;;;0.20;1.00;;;;;;10479986;28;20191;-79
2023/01/28 03:55:53;;;;;;;11.23;6.27;;;0.20;99.90;;;;;;10480473;28;20238;-80
2023/01/28 04:01:14;;;;;;;9.17;4.90;;;0.30;48.60;;;;;;10479524;28;20237;-81
2023/01/28 04:06:36;;;;;;;14.57;7.43;;;0.40;1.00;;;;;;10480396;28;20220;-81
2023/01/28 04:12:12;;;;;;;11.50;6.23;;;0.30;1.00;;;;;;10479859;28;20204;-81
2023/01/28 04:17:48;;;;;;;20.40;7.93;;;0.30;1.00;;;;;;10465622;28;20192;-81
2023/01/28 04:23:21;;;;;;;16.37;7.33;;;0.50;99.90;;;;;;10471754;28;20223;-81
2023/01/28 04:28:43;;;;;;;8.77;5.57;;;0.40;1.00;;;;;;10479525;28;20195;-82
2023/01/28 04:34:04;;;;;;;7.47;4.27;;;0.50;99.90;;;;;;10479059;28;20263;-81
2023/01/28 04:39:52;;;;;;;9.80;5.73;;;0.50;99.90;;;;;;10559029;28;20432;-81
2023/01/28 04:45:20;;;;;;;10.50;5.17;;;0.50;1.00;;;;;;10542817;28;20237;-81
2023/01/28 04:51:03;;;;;;;12.70;5.90;;;0.50;1.00;;;;;;10434617;28;20204;-81
2023/01/28 04:56:31;;;;;;;11.93;5.40;;;0.50;1.00;;;;;;10403636;28;20549;-81
2023/01/28 05:01:54;;;;;;;10.17;4.93;;;0.50;1.00;;;;;;10434645;28;20561;-81
2023/01/28 05:07:15;;;;;;;8.23;5.47;;;0.50;99.90;;;;;;10434776;28;20204;-80
2023/01/28 05:12:38;;;;;;;9.67;5.47;;;0.50;99.90;;;;;;10416109;28;20228;-81
2023/01/28 05:18:01;;;;;;;6.67;4.80;;;0.40;1.00;;;;;;10376806;28;20201;-82
2023/01/28 05:23:28;;;;;;;10.00;6.23;;;0.50;1.00;;;;;;10378904;28;20384;-82
2023/01/28 05:28:51;;;;;;;19.17;9.47;;;0.60;1.00;;;;;;10473046;28;20427;-81
2023/01/28 05:34:13;;;;;;;16.27;8.93;;;0.70;1.00;;;;;;10477325;28;20249;-79
2023/01/28 05:39:34;;;;;;;22.77;10.00;;;0.70;95.40;;;;;;10427337;28;20392;-76
2023/01/28 05:44:56;;;;;;;17.93;10.13;;;0.60;1.00;;;;;;10491195;28;20239;-81
2023/01/28 05:50:41;;;;;;;29.87;13.47;;;0.50;52.80;;;;;;10433397;28;20219;-82
2023/01/28 05:56:10;;;;;;;35.33;17.27;;;0.50;1.00;;;;;;10424901;28;20244;-81
2023/01/28 06:01:33;;;;;;;40.60;17.70;;;0.50;99.90;;;;;;10427661;28;20209;-82
2023/01/28 06:06:54;;;;;;;21.03;9.13;;;0.50;99.90;;;;;;10441051;28;20212;-79
2023/01/28 06:12:16;;;;;;;22.33;10.60;;;0.60;1.00;;;;;;10426150;28;20244;-81
2023/01/28 06:18:07;;;;;;;33.17;14.23;;;0.60;1.00;;;;;;10269267;29;20207;-80
2023/01/28 06:23:28;;;;;;;27.13;13.87;;;0.60;99.90;;;;;;10277665;29;20235;-80
2023/01/28 06:28:49;;;;;;;29.00;14.20;;;0.60;1.00;;;;;;10370465;28;20210;-79
2023/01/28 06:34:10;;;;;;;28.60;15.97;;;0.50;1.00;;;;;;10347232;28;20201;-80
2023/01/28 06:39:32;;;;;;;30.53;16.63;;;0.50;1.00;;;;;;10337161;28;20427;-79
2023/01/28 06:44:53;;;;;;;35.73;16.90;;;0.60;1.00;;;;;;10340580;28;20240;-80
2023/01/28 06:50:15;;;;;;;30.20;15.63;;;0.60;1.00;;;;;;10357924;28;20217;-81
2023/01/28 06:55:36;;;;;;;25.10;15.13;;;0.60;99.90;;;;;;10483668;28;20232;-81
2023/01/28 07:00:57;;;;;;;32.47;17.80;;;0.60;1.00;;;;;;10482896;28;20206;-81
2023/01/28 07:06:18;;;;;;;33.90;18.37;;;0.60;1.00;;;;;;10481335;28;20293;-80
2023/01/28 07:11:39;;;;;;;22.40;13.27;;;0.70;1.00;;;;;;10483330;28;20191;-80
2023/01/28 07:17:00;;;;;;;33.83;23.23;;;0.60;99.90;;;;;;10480798;28;20223;-80
2023/01/28 07:22:21;;;;;;;25.07;14.53;;;0.60;1.00;;;;;;10482374;28;20218;-79
2023/01/28 07:27:51;;;;;;;23.27;14.17;;;0.60;99.90;;;;;;10480856;28;20240;-79
2023/01/28 07:33:12;;;;;;;22.77;12.10;;;0.60;1.00;;;;;;10482761;28;20193;-79
2023/01/28 07:38:33;;;;;;;41.57;20.17;;;0.70;99.90;;;;;;10465972;28;20498;-80
2023/01/28 07:43:54;;;;;;;30.47;15.53;;;0.80;1.00;;;;;;10479977;28;20232;-80
2023/01/28 07:49:15;;;;;;;33.27;15.30;;;0.80;1.00;;;;;;10481957;28;20442;-81
2023/01/28 07:54:37;;;;;;;26.07;13.60;;;0.80;1.00;;;;;;10495048;28;20525;-82
2023/01/28 07:59:58;;;;;;;33.20;15.07;;;0.80;1.00;;;;;;10477656;28;20230;-79
2023/01/28 08:05:20;;;;;;;45.53;20.33;;;0.90;99.90;;;;;;10481174;28;20402;-79
2023/01/28 08:10:42;;;;;;;52.87;25.23;;;0.90;1.00;;;;;;10481143;28;20238;-80
2023/01/28 08:16:04;;;;;;;50.50;22.67;;;0.90;1.00;;;;;;10479744;28;20223;-82
2023/01/28 08:21:26;;;;;;;50.53;24.63;;;0.90;1.00;;;;;;10480163;28;20204;-80
2023/01/28 08:26:47;;;;;;;53.00;24.20;;;1.00;1.00;;;;;;10424098;28;20230;-80
2023/01/28 08:32:10;;;;;;;48.97;21.33;;;1.10;1.00;;;;;;10445344;28;20210;-77
2023/01/28 08:37:31;;;;;;;57.67;28.23;;;1.10;1.00;;;;;;10457872;28;20380;-76
2023/01/28 08:42:53;;;;;;;54.93;26.13;;;1.30;1.00;;;;;;10478795;28;20216;-77
2023/01/28 08:48:16;;;;;;;49.63;22.37;;;1.30;1.00;;;;;;10478398;28;20199;-82
2023/01/28 08:53:37;;;;;;;38.63;18.40;;;1.40;1.00;;;;;;10477086;28;20204;-81
2023/01/28 08:58:58;;;;;;;18.97;9.93;;;1.40;1.00;;;;;;10479085;28;20422;-81
2023/01/28 09:04:19;;;;;;;12.03;6.20;;;1.40;99.90;;;;;;10477614;28;20266;-81
2023/01/28 09:09:40;;;;;;;20.60;10.03;;;1.40;99.90;;;;;;10478011;28;20195;-82
2023/01/28 09:15:01;;;;;;;25.53;12.17;;;1.30;99.90;;;;;;10477920;28;20249;-81
2023/01/28 09:20:22;;;;;;;22.03;10.17;;;1.30;99.90;;;;;;10478759;28;20267;-82
2023/01/28 09:25:44;;;;;;;15.40;8.50;;;1.30;99.90;;;;;;10462825;28;20223;-80
2023/01/28 09:31:08;;;;;;;13.53;8.07;;;1.30;99.90;;;;;;10476490;28;20188;-81
2023/01/28 09:36:29;;;;;;;21.03;10.43;;;1.40;99.90;;;;;;10461690;28;20279;-81
2023/01/28 09:42:12;;;;;;;18.83;9.23;;;1.50;99.90;;;;;;10462604;28;20206;-81
2023/01/28 09:47:39;;;;;;;17.63;9.87;;;1.60;99.90;;;;;;10477892;28;20421;-81
2023/01/28 09:53:30;;;;;;;17.60;8.77;;;1.50;18.90;;;;;;10437623;28;20256;-80
2023/01/28 09:58:51;;;;;;;16.03;8.70;;;1.60;99.90;;;;;;10477514;28;20430;-81
2023/01/28 10:04:50;;;;;;;31.03;16.00;;;1.70;64.40;;;;;;10477871;28;20242;-81
2023/01/28 10:10:26;;;;;;;46.87;20.77;;;1.70;86.70;;;;;;10488523;28;20435;-81
2023/01/28 10:16:05;;;;;;;30.33;14.53;;;1.70;10.00;;;;;;10475714;28;20193;-82
2023/01/28 10:21:42;;;;;;;30.63;15.33;;;1.60;1.00;;;;;;10435448;28;20199;-80
2023/01/28 10:27:20;;;;;;;26.23;13.70;;;1.60;90.70;;;;;;10443234;28;20227;-81
2023/01/28 10:32:50;;;;;;;36.90;17.47;;;1.60;93.20;;;;;;10445794;28;20220;-80
2023/01/28 10:38:23;;;;;;;19.27;9.37;;;1.60;99.90;;;;;;10471561;28;20191;-81
2023/01/28 10:43:44;;;;;;;22.63;11.90;;;1.80;92.30;;;;;;10488632;28;20239;-81
2023/01/28 10:49:13;;;;;;;25.20;12.60;;;1.90;99.90;;;;;;10483350;28;20199;-79
2023/01/28 10:54:34;;;;;;;26.27;13.47;;;1.90;54.60;;;;;;10491577;28;20199;-80
2023/01/28 10:59:55;;;;;;;17.23;10.17;;;1.90;99.90;;;;;;10509989;28;20433;-80
2023/01/28 11:05:27;;;;;;;11.80;4.93;;;1.90;4.20;;;;;;10525064;28;20510;-80
2023/01/28 11:10:49;;;;;;;4.57;2.70;;;1.90;90.30;;;;;;10513148;28;20459;-81
2023/01/28 11:16:20;;;;;;;8.23;2.97;;;1.90;99.90;;;;;;10502292;28;20199;-79
2023/01/28 11:21:50;;;;;;;8.53;5.00;;;2.00;99.90;;;;;;10482925;28;20395;-82
2023/01/28 11:27:17;;;;;;;14.50;6.50;;;2.10;99.90;;;;;;10460341;28;20261;-81
2023/01/28 11:32:38;;;;;;;11.17;4.93;;;2.00;99.90;;;;;;10495746;28;20194;-81
2023/01/28 11:38:00;;;;;;;11.47;4.93;;;2.10;99.90;;;;;;10481678;28;20245;-80
2023/01/28 11:43:26;;;;;;;11.00;5.17;;;2.10;99.90;;;;;;10480644;28;20405;-80
2023/01/28 11:49:38;;;;;;;10.90;4.20;;;2.20;99.90;;;;;;10482163;28;20194;-80
2023/01/28 11:55:17;;;;;;;7.87;4.00;;;2.20;99.90;;;;;;10478775;28;20236;-80
2023/01/28 12:01:00;;;;;;;4.73;2.90;;;2.30;93.30;;;;;;10480596;28;20502;-77
2023/01/28 12:06:34;;;;;;;34.13;19.33;;;2.30;1.00;;;;;;10479834;28;20236;-79
2023/01/28 12:12:32;;;;;;;16.10;9.73;;;2.30;1.00;;;;;;10497827;28;20203;-79
2023/01/28 12:18:08;;;;;;;7.97;4.20;;;2.40;1.00;;;;;;10470695;28;20204;-79
2023/01/28 12:23:49;;;;;;;9.03;4.80;;;2.50;1.00;;;;;;10480099;28;20224;-79
2023/01/28 12:29:16;;;;;;;16.07;6.77;;;2.50;1.00;;;;;;10490627;28;20235;-80
2023/01/28 12:34:40;;;;;;;22.53;10.80;;;2.40;1.00;;;;;;10449075;28;20188;-79
2023/01/28 12:40:11;;;;;;;11.43;5.67;;;2.50;1.00;;;;;;10478714;28;20212;-79
2023/01/28 12:45:44;;;;;;;15.60;7.03;;;2.50;1.00;;;;;;10476374;28;20535;-81
2023/01/28 12:51:20;;;;;;;18.57;7.77;;;2.50;38.00;;;;;;10520917;28;20187;-81
2023/01/28 12:56:47;;;;;;;16.83;7.50;;;2.50;1.00;;;;;;10519525;28;20409;-81
2023/01/28 13:02:28;;;;;;;25.70;10.83;;;2.50;1.00;;;;;;10485305;28;20200;-79
2023/01/28 13:08:18;;;;;;;25.23;9.67;;;2.50;79.20;;;;;;10479095;28;20556;-81
2023/01/28 13:13:42;;;;;;;10.87;4.33;;;2.60;39.50;;;;;;10476986;28;20189;-81
2023/01/28 13:19:34;;;;;;;7.10;3.93;;;2.60;1.00;;;;;;10479290;28;20195;-81
2023/01/28 13:24:56;;;;;;;13.30;6.07;;;2.50;99.90;;;;;;10478331;28;20262;-81
2023/01/28 13:30:32;;;;;;;15.30;8.80;;;2.50;20.10;;;;;;10502327;28;20457;-81
2023/01/28 13:35:54;;;;;;;11.87;5.53;;;2.50;99.90;;;;;;10493204;28;20487;-80
2023/01/28 13:41:17;;;;;;;14.07;6.73;;;2.50;99.90;;;;;;10463054;28;20386;-81
2023/01/28 13:46:38;;;;;;;18.97;6.77;;;2.50;99.90;;;;;;10474962;28;20252;-81
2023/01/28 13:52:08;;;;;;;13.07;6.67;;;2.40;99.90;;;;;;10477228;28;20208;-81
2023/01/28 13:57:53;;;;;;;12.07;6.73;;;2.40;99.90;;;;;;10477539;28;20266;-81
2023/01/28 14:03:33;;;;;;;13.23;5.40;;;2.40;1.00;;;;;;10476828;28;20211;-81
2023/01/28 14:09:28;;;;;;;11.97;6.17;;;2.40;1.00;;;;;;10477691;28;20298;-81
2023/01/28 14:15:07;;;;;;;9.03;5.10;;;2.30;1.00;;;;;;10479550;28;20209;-81
2023/01/28 14:20:36;;;;;;;25.03;9.93;;;2.30;1.00;;;;;;10483578;28;20295;-81
2023/01/28 14:26:27;;;;;;;25.43;9.90;;;2.30;1.00;;;;;;10485177;28;20236;-81
2023/01/28 14:31:51;;;;;;;22.77;12.90;;;2.30;1.00;;;;;;10486516;28;20192;-80
2023/01/28 14:37:21;;;;;;;37.53;18.10;;;2.20;1.00;;;;;;10465579;28;20196;-77
2023/01/28 14:42:48;;;;;;;47.90;21.13;;;2.00;26.30;;;;;;10487026;28;20212;-76
2023/01/28 14:48:14;;;;;;;56.20;26.97;;;1.90;99.90;;;;;;10483111;28;20204;-76
2023/01/28 14:54:12;;;;;;;56.30;25.40;;;1.80;1.00;;;;;;10483842;28;20545;-77
2023/01/28 14:59:47;;;;;;;24.73;12.67;;;1.80;18.50;;;;;;10482563;28;20242;-76
2023/01/28 15:05:13;;;;;;;37.80;16.27;;;1.60;99.90;;;;;;10481633;28;20813;-81
2023/01/28 15:10:38;;;;;;;32.30;15.77;;;1.60;1.00;;;;;;10467501;28;20510;-79
2023/01/28 15:15:59;;;;;;;36.60;16.03;;;1.50;1.00;;;;;;10482599;28;20197;-79
2023/01/28 15:21:23;;;;;;;27.90;14.77;;;1.60;1.00;;;;;;10482339;28;20471;-80
2023/01/28 15:26:48;;;;;;;28.60;16.00;;;1.50;41.90;;;;;;10479743;28;20227;-81
2023/01/28 15:32:25;;;;;;;37.40;14.90;;;1.50;1.00;;;;;;10482741;28;20219;-80
2023/01/28 15:37:46;;;;;;;53.40;22.03;;;1.50;99.90;;;;;;10460251;28;20448;-77
2023/01/28 15:43:30;;;;;;;55.17;24.00;;;1.50;99.90;;;;;;10473176;28;20216;-80
2023/01/28 15:49:02;;;;;;;70.80;29.07;;;1.50;1.00;;;;;;10439580;28;20196;-79
2023/01/28 15:54:24;;;;;;;70.47;31.23;;;1.40;1.00;;;;;;10450734;28;20207;-79
2023/01/28 15:59:49;;;;;;;114.27;44.47;;;1.40;99.90;;;;;;10481487;28;20230;-79
2023/01/28 16:05:32;;;;;;;71.53;32.63;;;1.40;1.00;;;;;;10481052;28;20502;-80
2023/01/28 16:10:55;;;;;;;75.87;37.57;;;1.40;1.00;;;;;;10478668;28;20520;-79
2023/01/28 16:16:29;;;;;;;59.07;28.83;;;1.40;1.00;;;;;;10479585;28;20508;-79
2023/01/28 16:21:50;;;;;;;51.93;25.33;;;1.40;1.00;;;;;;10480351;28;20391;-79
2023/01/28 16:27:25;;;;;;;43.67;18.37;;;1.30;1.00;;;;;;10442460;28;20231;-79
2023/01/28 16:32:47;;;;;;;43.03;18.53;;;1.40;1.00;;;;;;10437627;28;20243;-79
2023/01/28 16:38:08;;;;;;;58.03;27.03;;;1.40;1.00;;;;;;10456230;28;20200;-80
2023/01/28 16:43:29;;;;;;;42.50;23.77;;;1.40;1.00;;;;;;10466915;28;20242;-79
2023/01/28 16:48:50;;;;;;;46.33;24.07;;;1.40;99.90;;;;;;10437330;28;20495;-79
2023/01/28 16:54:14;;;;;;;93.17;39.50;;;1.30;1.00;;;;;;10440033;28;20230;-80
2023/01/28 16:59:35;;;;;;;71.63;32.03;;;1.20;1.00;;;;;;10479096;28;20303;-80
2023/01/28 17:04:56;;;;;;;63.47;27.80;;;1.10;1.00;;;;;;10479130;28;20231;-80
2023/01/28 17:10:19;;;;;;;115.20;42.43;;;1.10;99.90;;;;;;10477383;28;20191;-78
2023/01/28 17:15:41;;;;;;;83.23;35.57;;;1.00;1.00;;;;;;10478745;28;20271;-77
2023/01/28 17:21:06;;;;;;;92.50;36.93;;;1.00;1.00;;;;;;10477863;28;20194;-81
2023/01/28 17:26:30;;;;;;;62.40;28.23;;;1.00;1.00;;;;;;10465431;28;20224;-81
2023/01/28 17:31:51;;;;;;;52.63;23.13;;;1.10;1.00;;;;;;10436950;28;20260;-81
2023/01/28 17:37:12;;;;;;;51.93;22.67;;;1.10;1.00;;;;;;10445499;28;20204;-81
2023/01/28 17:42:33;;;;;;;48.30;23.03;;;1.10;1.00;;;;;;10476578;28;20287;-81
2023/01/28 17:47:54;;;;;;;52.07;24.77;;;1.10;99.90;;;;;;10478252;28;20227;-81
2023/01/28 17:53:15;;;;;;;36.17;19.33;;;1.10;1.00;;;;;;10484923;28;20364;-79
2023/01/28 17:58:36;;;;;;;43.57;18.10;;;1.20;1.00;;;;;;10480953;28;20253;-79
2023/01/28 18:03:58;;;;;;;37.83;18.00;;;1.10;1.00;;;;;;10486075;28;20238;-77
2023/01/28 18:09:19;;;;;;;46.07;21.10;;;1.10;1.00;;;;;;10485045;28;20192;-79
2023/01/28 18:14:41;;;;;;;45.27;18.73;;;1.10;1.00;;;;;;10460039;28;20208;-80
2023/01/28 18:20:03;;;;;;;34.00;14.53;;;1.20;99.90;;;;;;10457741;28;20191;-81
2023/01/28 18:25:24;;;;;;;21.07;10.40;;;1.10;1.00;;;;;;10442751;28;20231;-78
2023/01/28 18:30:45;;;;;;;29.93;13.53;;;1.10;99.90;;;;;;10466924;28;20202;-75
2023/01/28 18:36:07;;;;;;;23.43;11.53;;;1.00;1.00;;;;;;10460361;28;20283;-79
2023/01/28 18:41:28;;;;;;;37.53;15.77;;;0.90;99.90;;;;;;10499669;28;20195;-80
2023/01/28 18:46:51;;;;;;;52.73;18.07;;;0.80;99.90;;;;;;10479310;28;20228;-80
2023/01/28 18:52:12;;;;;;;41.40;16.87;;;0.70;1.00;;;;;;10483999;28;20188;-77
2023/01/28 18:57:33;;;;;;;27.33;12.87;;;0.80;1.00;;;;;;10483915;28;20426;-79
2023/01/28 19:02:54;;;;;;;23.50;11.03;;;0.80;1.00;;;;;;10483049;28;20191;-78
2023/01/28 19:08:16;;;;;;;15.70;7.70;;;0.80;97.60;;;;;;10482300;28;20234;-78
2023/01/28 19:13:37;;;;;;;10.73;6.17;;;0.80;99.90;;;;;;10481350;28;20278;-79
2023/01/28 19:19:00;;;;;;;25.27;10.53;;;0.90;8.20;;;;;;10483247;28;20183;-79
2023/01/28 19:24:21;;;;;;;34.77;14.90;;;1.00;1.00;;;;;;10482833;28;20210;-78
2023/01/28 19:29:42;;;;;;;36.00;16.43;;;1.10;1.00;;;;;;10481594;28;20211;-78
2023/01/28 19:35:03;;;;;;;30.03;12.97;;;1.10;1.00;;;;;;10477460;28;20216;-79
2023/01/28 19:40:24;;;;;;;23.03;10.57;;;1.00;1.00;;;;;;10467573;28;20555;-78
2023/01/28 19:45:59;;;;;;;14.13;6.43;;;1.10;1.00;;;;;;10476310;28;20250;-80
2023/01/28 19:51:21;;;;;;;7.00;4.50;;;1.10;1.00;;;;;;10481929;28;20238;-78
2023/01/28 19:56:43;;;;;;;10.60;4.93;;;1.10;1.00;;;;;;10480291;28;20273;-79
2023/01/28 20:02:04;;;;;;;9.43;3.93;;;1.10;1.00;;;;;;10480568;28;20199;-80
2023/01/28 20:07:25;;;;;;;10.20;3.87;;;1.20;1.00;;;;;;10480369;28;20261;-76
2023/01/28 20:12:46;;;;;;;8.10;3.87;;;1.10;1.00;;;;;;10476698;28;20225;-79
2023/01/28 20:18:07;;;;;;;6.40;3.73;;;1.20;99.90;;;;;;10438497;28;20213;-75
2023/01/28 20:23:28;;;;;;;13.67;6.17;;;1.20;1.00;;;;;;10438136;28;20210;-81
2023/01/28 20:28:50;;;;;;;11.23;5.00;;;1.30;1.00;;;;;;10467308;28;20234;-80
2023/01/28 20:34:16;;;;;;;8.47;4.33;;;1.30;99.90;;;;;;10480462;28;20225;-81
2023/01/28 20:39:37;;;;;;;8.17;3.63;;;1.30;1.00;;;;;;10459417;28;20194;-80
2023/01/28 20:44:58;;;;;;;7.60;2.87;;;1.20;1.00;;;;;;10475844;28;20239;-81
2023/01/28 20:50:19;;;;;;;4.30;2.20;;;1.30;1.00;;;;;;10486265;28;20244;-80
2023/01/28 20:55:40;;;;;;;6.83;3.30;;;1.30;1.00;;;;;;10479142;28;20448;-79
2023/01/28 21:01:02;;;;;;;8.47;3.80;;;1.20;1.00;;;;;;10475639;28;20275;-79
2023/01/28 21:06:24;;;;;;;7.70;3.87;;;1.20;1.00;;;;;;10477982;28;20227;-80
2023/01/28 21:11:45;;;;;;;11.70;4.57;;;1.10;5.90;;;;;;10478128;28;20206;-80
2023/01/28 21:17:06;;;;;;;7.00;3.43;;;1.20;99.90;;;;;;10470520;28;20506;-77
2023/01/28 21:22:28;;;;;;;8.13;3.90;;;1.10;1.00;;;;;;10482272;28;20195;-78
2023/01/28 21:27:49;;;;;;;7.77;3.30;;;1.10;1.00;;;;;;10519797;28;20244;-78
2023/01/28 21:33:10;;;;;;;6.63;2.93;;;1.10;1.00;;;;;;10504381;28;20204;-78
2023/01/28 21:38:31;;;;;;;6.03;3.40;;;1.10;1.00;;;;;;10471679;28;20200;-80
2023/01/28 21:43:54;;;;;;;7.80;2.90;;;1.20;1.00;;;;;;10473427;28;20195;-78
2023/01/28 21:49:15;;;;;;;7.60;3.00;;;1.20;1.00;;;;;;10451909;28;20245;-79
2023/01/28 21:54:36;;;;;;;8.00;4.37;;;1.20;1.00;;;;;;10472336;28;20188;-78
2023/01/28 21:59:57;;;;;;;6.23;3.70;;;1.20;1.00;;;;;;10478127;28;20194;-79
2023/01/28 22:05:18;;;;;;;6.53;3.40;;;1.20;1.00;;;;;;10485725;28;20240;-80
2023/01/28 22:10:39;;;;;;;5.23;2.83;;;1.20;99.90;;;;;;10502913;28;20417;-81
2023/01/28 22:16:00;;;;;;;5.63;2.80;;;1.20;99.90;;;;;;10477793;28;20196;-81
2023/01/28 22:21:21;;;;;;;7.80;3.70;;;1.20;1.00;;;;;;10495875;28;20490;-79
2023/01/28 22:26:43;;;;;;;10.67;3.83;;;1.20;99.90;;;;;;10519304;28;20224;-81
2023/01/28 22:32:04;;;;;;;10.63;4.50;;;1.10;1.00;;;;;;10452532;28;20226;-80
2023/01/28 22:37:25;;;;;;;9.53;3.90;;;1.10;99.90;;;;;;10470837;28;20567;-80
2023/01/28 22:42:46;;;;;;;7.40;3.50;;;1.10;1.00;;;;;;10491639;28;20445;-80
2023/01/28 22:48:07;;;;;;;7.20;3.23;;;1.10;1.00;;;;;;10458614;28;20246;-80
2023/01/28 22:53:29;;;;;;;5.53;3.17;;;1.20;99.90;;;;;;10467840;28;20500;-79
2023/01/28 22:58:54;;;;;;;6.10;3.27;;;1.10;1.00;;;;;;10482778;28;20433;-81
2023/01/28 23:04:15;;;;;;;6.17;2.90;;;1.10;32.80;;;;;;10483486;28;20211;-80
2023/01/28 23:09:37;;;;;;;6.67;3.50;;;1.10;99.90;;;;;;10470551;28;20204;-79
2023/01/28 23:26:18;;;;;;;13.73;4.90;;;1.00;99.90;;;;;;10471719;28;20216;-80
2023/01/28 23:31:41;;;;;;;11.53;4.63;;;1.10;1.00;;;;;;10481857;28;20482;-80
2023/01/28 23:37:03;;;;;;;8.90;4.07;;;1.10;1.00;;;;;;10481037;28;20207;-78
2023/01/28 23:42:25;;;;;;;7.93;4.30;;;1.10;73.30;;;;;;10481890;28;20203;-80
2023/01/28 23:47:47;;;;;;;10.30;4.90;;;1.10;66.50;;;;;;10480081;28;20216;-80
2023/01/28 23:53:11;;;;;;;9.43;4.27;;;1.10;1.00;;;;;;10483492;28;20211;-78
2023/01/28 23:58:33;;;;;;;10.67;5.20;;;1.00;1.00;;;;;;10522368;28;20288;-79
